sensor_id;sensor_type;location;lat;lon;timestamp;P1;durP1;ratioP1;P2;durP2;ratioP2
47784;SDS011;35233;55.686;37.848;2023-11-21T00:02:04;6.18;;;4.70;;
47784;SDS011;35233;55.686;37.848;2023-11-21T00:04:29;7.60;;;5.40;;
47784;SDS011;35233;55.686;37.848;2023-11-21T00:06:55;6.78;;;4.82;;
47784;SDS011;35233;55.686;37.848;2023-11-21T00:09:20;6.15;;;4.90;;
47784;SDS011;35233;55.686;37.848;2023-11-21T00:11:46;7.60;;;5.22;;
47784;SDS011;35233;55.686;37.848;2023-11-21T00:14:12;8.35;;;5.32;;
47784;SDS011;35233;55.686;37.848;2023-11-21T00:16:40;8.27;;;5.15;;
47784;SDS011;35233;55.686;37.848;2023-11-21T00:19:05;6.75;;;5.03;;
47784;SDS011;35233;55.686;37.848;2023-11-21T00:21:31;8.60;;;5.70;;
47784;SDS011;35233;55.686;37.848;2023-11-21T00:23:56;7.05;;;4.93;;
47784;SDS011;35233;55.686;37.848;2023-11-21T00:26:22;6.55;;;5.07;;
47784;SDS011;35233;55.686;37.848;2023-11-21T00:28:48;9.48;;;5.20;;
47784;SDS011;35233;55.686;37.848;2023-11-21T00:31:13;9.13;;;5.35;;
47784;SDS011;35233;55.686;37.848;2023-11-21T00:33:39;6.53;;;4.75;;
47784;SDS011;35233;55.686;37.848;2023-11-21T00:36:04;7.13;;;4.80;;
47784;SDS011;35233;55.686;37.848;2023-11-21T00:38:34;8.60;;;5.50;;
47784;SDS011;35233;55.686;37.848;2023-11-21T00:41:00;7.63;;;5.10;;
47784;SDS011;35233;55.686;37.848;2023-11-21T00:43:26;6.88;;;4.68;;
47784;SDS011;35233;55.686;37.848;2023-11-21T00:45:51;6.63;;;4.50;;
47784;SDS011;35233;55.686;37.848;2023-11-21T00:48:17;7.00;;;5.13;;
47784;SDS011;35233;55.686;37.848;2023-11-21T00:50:43;7.63;;;4.80;;
47784;SDS011;35233;55.686;37.848;2023-11-21T00:53:09;7.72;;;5.05;;
47784;SDS011;35233;55.686;37.848;2023-11-21T00:55:35;8.55;;;4.88;;
47784;SDS011;35233;55.686;37.848;2023-11-21T00:58:01;7.63;;;5.35;;
47784;SDS011;35233;55.686;37.848;2023-11-21T01:00:29;7.07;;;4.50;;
47784;SDS011;35233;55.686;37.848;2023-11-21T01:02:54;6.90;;;4.78;;
47784;SDS011;35233;55.686;37.848;2023-11-21T01:05:20;9.43;;;4.90;;
47784;SDS011;35233;55.686;37.848;2023-11-21T01:07:45;6.63;;;4.75;;
47784;SDS011;35233;55.686;37.848;2023-11-21T01:10:11;6.60;;;4.90;;
47784;SDS011;35233;55.686;37.848;2023-11-21T01:12:37;8.52;;;4.90;;
47784;SDS011;35233;55.686;37.848;2023-11-21T01:15:04;7.88;;;4.80;;
47784;SDS011;35233;55.686;37.848;2023-11-21T01:17:32;6.85;;;4.57;;
47784;SDS011;35233;55.686;37.848;2023-11-21T01:19:59;6.10;;;4.53;;
47784;SDS011;35233;55.686;37.848;2023-11-21T01:22:25;8.55;;;4.70;;
47784;SDS011;35233;55.686;37.848;2023-11-21T01:24:52;6.63;;;4.28;;
47784;SDS011;35233;55.686;37.848;2023-11-21T01:27:18;7.18;;;4.70;;
47784;SDS011;35233;55.686;37.848;2023-11-21T01:29:44;7.97;;;4.90;;
47784;SDS011;35233;55.686;37.848;2023-11-21T01:32:09;7.82;;;5.18;;
47784;SDS011;35233;55.686;37.848;2023-11-21T01:34:35;5.85;;;4.30;;
47784;SDS011;35233;55.686;37.848;2023-11-21T01:37:01;9.07;;;5.43;;
47784;SDS011;35233;55.686;37.848;2023-11-21T01:39:29;6.95;;;4.72;;
47784;SDS011;35233;55.686;37.848;2023-11-21T01:41:55;6.78;;;4.38;;
47784;SDS011;35233;55.686;37.848;2023-11-21T01:44:23;6.15;;;4.38;;
47784;SDS011;35233;55.686;37.848;2023-11-21T01:46:52;6.05;;;4.75;;
47784;SDS011;35233;55.686;37.848;2023-11-21T01:49:18;6.45;;;4.60;;
47784;SDS011;35233;55.686;37.848;2023-11-21T01:51:46;5.75;;;4.22;;
47784;SDS011;35233;55.686;37.848;2023-11-21T01:54:15;8.02;;;4.65;;
47784;SDS011;35233;55.686;37.848;2023-11-21T01:56:43;6.90;;;4.63;;
47784;SDS011;35233;55.686;37.848;2023-11-21T01:59:11;8.52;;;4.90;;
47784;SDS011;35233;55.686;37.848;2023-11-21T02:01:39;6.55;;;4.55;;
47784;SDS011;35233;55.686;37.848;2023-11-21T02:04:06;7.38;;;4.93;;
47784;SDS011;35233;55.686;37.848;2023-11-21T02:06:33;7.70;;;4.80;;
47784;SDS011;35233;55.686;37.848;2023-11-21T02:08:59;6.93;;;4.95;;
47784;SDS011;35233;55.686;37.848;2023-11-21T02:11:24;6.35;;;4.25;;
47784;SDS011;35233;55.686;37.848;2023-11-21T02:13:52;6.95;;;4.18;;
47784;SDS011;35233;55.686;37.848;2023-11-21T02:16:19;5.65;;;4.25;;
47784;SDS011;35233;55.686;37.848;2023-11-21T02:18:46;7.35;;;4.57;;
47784;SDS011;35233;55.686;37.848;2023-11-21T02:21:13;6.50;;;4.30;;
47784;SDS011;35233;55.686;37.848;2023-11-21T02:23:39;6.13;;;4.25;;
47784;SDS011;35233;55.686;37.848;2023-11-21T02:26:09;7.35;;;4.63;;
47784;SDS011;35233;55.686;37.848;2023-11-21T02:28:35;5.18;;;3.97;;
47784;SDS011;35233;55.686;37.848;2023-11-21T02:31:01;4.78;;;3.85;;
47784;SDS011;35233;55.686;37.848;2023-11-21T02:33:28;5.35;;;4.00;;
47784;SDS011;35233;55.686;37.848;2023-11-21T02:35:53;7.40;;;4.43;;
47784;SDS011;35233;55.686;37.848;2023-11-21T02:38:20;7.07;;;4.30;;
47784;SDS011;35233;55.686;37.848;2023-11-21T02:40:46;6.18;;;4.22;;
47784;SDS011;35233;55.686;37.848;2023-11-21T02:43:14;6.10;;;4.03;;
47784;SDS011;35233;55.686;37.848;2023-11-21T02:45:39;6.00;;;4.35;;
47784;SDS011;35233;55.686;37.848;2023-11-21T02:48:06;6.68;;;4.00;;
47784;SDS011;35233;55.686;37.848;2023-11-21T02:50:32;5.85;;;3.92;;
47784;SDS011;35233;55.686;37.848;2023-11-21T02:52:58;6.15;;;4.00;;
47784;SDS011;35233;55.686;37.848;2023-11-21T02:55:25;6.38;;;4.18;;
47784;SDS011;35233;55.686;37.848;2023-11-21T02:57:51;6.47;;;4.25;;
47784;SDS011;35233;55.686;37.848;2023-11-21T03:00:17;6.75;;;4.07;;
47784;SDS011;35233;55.686;37.848;2023-11-21T03:02:43;5.75;;;3.97;;
47784;SDS011;35233;55.686;37.848;2023-11-21T03:05:09;5.78;;;4.00;;
47784;SDS011;35233;55.686;37.848;2023-11-21T03:07:36;5.97;;;4.13;;
47784;SDS011;35233;55.686;37.848;2023-11-21T03:10:03;6.78;;;4.10;;
47784;SDS011;35233;55.686;37.848;2023-11-21T03:12:29;5.68;;;3.97;;
47784;SDS011;35233;55.686;37.848;2023-11-21T03:14:55;5.78;;;4.03;;
47784;SDS011;35233;55.686;37.848;2023-11-21T03:17:21;6.45;;;4.15;;
47784;SDS011;35233;55.686;37.848;2023-11-21T03:19:48;5.88;;;4.10;;
47784;SDS011;35233;55.686;37.848;2023-11-21T03:22:14;5.75;;;4.15;;
47784;SDS011;35233;55.686;37.848;2023-11-21T03:24:39;6.10;;;3.80;;
47784;SDS011;35233;55.686;37.848;2023-11-21T03:27:05;5.93;;;3.80;;
47784;SDS011;35233;55.686;37.848;2023-11-21T03:29:30;5.28;;;3.90;;
47784;SDS011;35233;55.686;37.848;2023-11-21T03:31:56;6.70;;;3.90;;
47784;SDS011;35233;55.686;37.848;2023-11-21T03:34:25;6.35;;;4.00;;
47784;SDS011;35233;55.686;37.848;2023-11-21T03:36:52;5.97;;;4.13;;
47784;SDS011;35233;55.686;37.848;2023-11-21T03:39:21;6.82;;;4.00;;
47784;SDS011;35233;55.686;37.848;2023-11-21T03:41:47;6.28;;;4.35;;
47784;SDS011;35233;55.686;37.848;2023-11-21T03:44:13;8.15;;;4.57;;
47784;SDS011;35233;55.686;37.848;2023-11-21T03:46:39;5.75;;;3.90;;
47784;SDS011;35233;55.686;37.848;2023-11-21T03:49:05;6.80;;;4.10;;
47784;SDS011;35233;55.686;37.848;2023-11-21T03:51:31;7.85;;;3.92;;
47784;SDS011;35233;55.686;37.848;2023-11-21T03:53:56;6.55;;;4.10;;
47784;SDS011;35233;55.686;37.848;2023-11-21T03:56:22;5.43;;;3.90;;
47784;SDS011;35233;55.686;37.848;2023-11-21T03:58:48;5.47;;;3.63;;
47784;SDS011;35233;55.686;37.848;2023-11-21T04:01:23;6.45;;;3.97;;
47784;SDS011;35233;55.686;37.848;2023-11-21T04:03:49;6.05;;;3.95;;
47784;SDS011;35233;55.686;37.848;2023-11-21T04:06:15;7.57;;;4.25;;
47784;SDS011;35233;55.686;37.848;2023-11-21T04:08:42;8.05;;;4.43;;
47784;SDS011;35233;55.686;37.848;2023-11-21T04:11:09;6.28;;;3.90;;
47784;SDS011;35233;55.686;37.848;2023-11-21T04:13:37;6.18;;;3.65;;
47784;SDS011;35233;55.686;37.848;2023-11-21T04:16:04;5.75;;;3.90;;
47784;SDS011;35233;55.686;37.848;2023-11-21T04:18:31;6.20;;;3.90;;
47784;SDS011;35233;55.686;37.848;2023-11-21T04:20:56;6.53;;;4.13;;
47784;SDS011;35233;55.686;37.848;2023-11-21T04:23:22;6.38;;;3.70;;
47784;SDS011;35233;55.686;37.848;2023-11-21T04:25:47;5.40;;;3.65;;
47784;SDS011;35233;55.686;37.848;2023-11-21T04:28:13;6.35;;;3.75;;
47784;SDS011;35233;55.686;37.848;2023-11-21T04:30:38;6.70;;;3.92;;
47784;SDS011;35233;55.686;37.848;2023-11-21T04:33:04;6.70;;;4.03;;
47784;SDS011;35233;55.686;37.848;2023-11-21T04:35:30;6.25;;;4.22;;
47784;SDS011;35233;55.686;37.848;2023-11-21T04:37:55;6.85;;;4.45;;
47784;SDS011;35233;55.686;37.848;2023-11-21T04:40:22;5.90;;;3.83;;
47784;SDS011;35233;55.686;37.848;2023-11-21T04:42:48;7.30;;;4.10;;
47784;SDS011;35233;55.686;37.848;2023-11-21T04:45:13;5.78;;;3.92;;
47784;SDS011;35233;55.686;37.848;2023-11-21T04:47:39;8.43;;;4.05;;
47784;SDS011;35233;55.686;37.848;2023-11-21T04:50:04;7.13;;;4.07;;
47784;SDS011;35233;55.686;37.848;2023-11-21T04:52:31;6.82;;;4.00;;
47784;SDS011;35233;55.686;37.848;2023-11-21T04:54:58;5.53;;;3.83;;
47784;SDS011;35233;55.686;37.848;2023-11-21T04:57:27;8.73;;;4.18;;
47784;SDS011;35233;55.686;37.848;2023-11-21T04:59:53;5.32;;;3.72;;
47784;SDS011;35233;55.686;37.848;2023-11-21T05:02:19;5.38;;;4.00;;
47784;SDS011;35233;55.686;37.848;2023-11-21T05:04:46;5.88;;;4.15;;
47784;SDS011;35233;55.686;37.848;2023-11-21T05:07:12;5.70;;;4.22;;
47784;SDS011;35233;55.686;37.848;2023-11-21T05:09:41;6.53;;;4.18;;
47784;SDS011;35233;55.686;37.848;2023-11-21T05:12:09;5.90;;;3.80;;
47784;SDS011;35233;55.686;37.848;2023-11-21T05:14:35;5.25;;;4.30;;
47784;SDS011;35233;55.686;37.848;2023-11-21T05:17:00;6.30;;;3.90;;
47784;SDS011;35233;55.686;37.848;2023-11-21T05:19:26;5.60;;;3.75;;
47784;SDS011;35233;55.686;37.848;2023-11-21T05:21:52;5.68;;;3.83;;
47784;SDS011;35233;55.686;37.848;2023-11-21T05:24:17;8.88;;;3.85;;
47784;SDS011;35233;55.686;37.848;2023-11-21T05:26:43;5.75;;;3.80;;
47784;SDS011;35233;55.686;37.848;2023-11-21T05:29:08;5.78;;;4.07;;
47784;SDS011;35233;55.686;37.848;2023-11-21T05:31:35;6.00;;;4.20;;
47784;SDS011;35233;55.686;37.848;2023-11-21T05:34:01;6.35;;;4.20;;
47784;SDS011;35233;55.686;37.848;2023-11-21T05:36:28;5.57;;;3.90;;
47784;SDS011;35233;55.686;37.848;2023-11-21T05:38:53;6.72;;;4.25;;
47784;SDS011;35233;55.686;37.848;2023-11-21T05:41:19;6.15;;;4.00;;
47784;SDS011;35233;55.686;37.848;2023-11-21T05:43:45;7.65;;;4.15;;
47784;SDS011;35233;55.686;37.848;2023-11-21T05:46:10;5.85;;;3.83;;
47784;SDS011;35233;55.686;37.848;2023-11-21T05:48:36;5.57;;;4.03;;
47784;SDS011;35233;55.686;37.848;2023-11-21T05:51:03;7.20;;;4.28;;
47784;SDS011;35233;55.686;37.848;2023-11-21T05:53:33;6.57;;;4.65;;
47784;SDS011;35233;55.686;37.848;2023-11-21T05:55:59;6.38;;;4.38;;
47784;SDS011;35233;55.686;37.848;2023-11-21T05:58:24;6.25;;;4.03;;
47784;SDS011;35233;55.686;37.848;2023-11-21T06:00:50;8.68;;;4.50;;
47784;SDS011;35233;55.686;37.848;2023-11-21T06:03:15;5.70;;;3.92;;
47784;SDS011;35233;55.686;37.848;2023-11-21T06:05:42;6.65;;;4.40;;
47784;SDS011;35233;55.686;37.848;2023-11-21T06:08:08;6.03;;;3.95;;
47784;SDS011;35233;55.686;37.848;2023-11-21T06:10:34;6.30;;;4.20;;
47784;SDS011;35233;55.686;37.848;2023-11-21T06:12:59;6.85;;;4.28;;
47784;SDS011;35233;55.686;37.848;2023-11-21T06:15:25;6.47;;;4.18;;
47784;SDS011;35233;55.686;37.848;2023-11-21T06:17:51;6.40;;;4.25;;
47784;SDS011;35233;55.686;37.848;2023-11-21T06:20:20;6.25;;;4.45;;
47784;SDS011;35233;55.686;37.848;2023-11-21T06:22:48;6.45;;;4.20;;
47784;SDS011;35233;55.686;37.848;2023-11-21T06:25:15;7.18;;;4.55;;
47784;SDS011;35233;55.686;37.848;2023-11-21T06:27:44;6.97;;;4.43;;
47784;SDS011;35233;55.686;37.848;2023-11-21T06:30:11;7.32;;;4.22;;
47784;SDS011;35233;55.686;37.848;2023-11-21T06:32:38;5.97;;;4.68;;
47784;SDS011;35233;55.686;37.848;2023-11-21T06:35:10;6.65;;;4.60;;
47784;SDS011;35233;55.686;37.848;2023-11-21T06:37:36;7.20;;;4.72;;
47784;SDS011;35233;55.686;37.848;2023-11-21T06:40:02;6.40;;;4.20;;
47784;SDS011;35233;55.686;37.848;2023-11-21T06:42:29;7.03;;;4.28;;
47784;SDS011;35233;55.686;37.848;2023-11-21T06:44:55;6.15;;;4.38;;
47784;SDS011;35233;55.686;37.848;2023-11-21T06:47:24;8.00;;;4.47;;
47784;SDS011;35233;55.686;37.848;2023-11-21T06:49:51;7.90;;;4.43;;
47784;SDS011;35233;55.686;37.848;2023-11-21T06:52:17;6.40;;;4.40;;
47784;SDS011;35233;55.686;37.848;2023-11-21T06:54:43;13.88;;;4.18;;
47784;SDS011;35233;55.686;37.848;2023-11-21T06:57:10;6.70;;;4.10;;
47784;SDS011;35233;55.686;37.848;2023-11-21T06:59:36;8.23;;;4.30;;
47784;SDS011;35233;55.686;37.848;2023-11-21T07:02:01;7.18;;;4.50;;
47784;SDS011;35233;55.686;37.848;2023-11-21T07:04:27;7.70;;;4.30;;
47784;SDS011;35233;55.686;37.848;2023-11-21T07:06:55;6.50;;;4.50;;
47784;SDS011;35233;55.686;37.848;2023-11-21T07:09:21;7.13;;;4.45;;
47784;SDS011;35233;55.686;37.848;2023-11-21T07:11:50;5.68;;;4.22;;
47784;SDS011;35233;55.686;37.848;2023-11-21T07:14:15;6.75;;;4.38;;
47784;SDS011;35233;55.686;37.848;2023-11-21T07:16:42;6.68;;;4.20;;
47784;SDS011;35233;55.686;37.848;2023-11-21T07:19:07;7.45;;;4.40;;
47784;SDS011;35233;55.686;37.848;2023-11-21T07:21:33;5.25;;;3.92;;
47784;SDS011;35233;55.686;37.848;2023-11-21T07:24:00;5.85;;;4.00;;
47784;SDS011;35233;55.686;37.848;2023-11-21T07:26:28;6.95;;;3.95;;
47784;SDS011;35233;55.686;37.848;2023-11-21T07:28:57;5.70;;;3.90;;
47784;SDS011;35233;55.686;37.848;2023-11-21T07:31:22;5.78;;;4.30;;
47784;SDS011;35233;55.686;37.848;2023-11-21T07:33:49;5.65;;;4.03;;
47784;SDS011;35233;55.686;37.848;2023-11-21T07:36:15;7.32;;;4.68;;
47784;SDS011;35233;55.686;37.848;2023-11-21T07:38:43;5.82;;;4.32;;
47784;SDS011;35233;55.686;37.848;2023-11-21T07:41:10;6.15;;;4.38;;
47784;SDS011;35233;55.686;37.848;2023-11-21T07:43:36;6.22;;;4.25;;
47784;SDS011;35233;55.686;37.848;2023-11-21T07:46:02;6.90;;;4.53;;
47784;SDS011;35233;55.686;37.848;2023-11-21T07:48:31;6.28;;;4.22;;
47784;SDS011;35233;55.686;37.848;2023-11-21T07:50:57;7.43;;;4.47;;
47784;SDS011;35233;55.686;37.848;2023-11-21T07:53:25;6.60;;;4.38;;
47784;SDS011;35233;55.686;37.848;2023-11-21T07:55:54;5.75;;;4.18;;
47784;SDS011;35233;55.686;37.848;2023-11-21T07:58:20;7.28;;;4.38;;
47784;SDS011;35233;55.686;37.848;2023-11-21T08:00:45;6.28;;;4.50;;
47784;SDS011;35233;55.686;37.848;2023-11-21T08:03:13;6.05;;;4.57;;
47784;SDS011;35233;55.686;37.848;2023-11-21T08:05:39;6.00;;;4.32;;
47784;SDS011;35233;55.686;37.848;2023-11-21T08:08:04;6.38;;;4.40;;
47784;SDS011;35233;55.686;37.848;2023-11-21T08:10:30;5.78;;;4.15;;
47784;SDS011;35233;55.686;37.848;2023-11-21T08:12:55;7.57;;;4.30;;
47784;SDS011;35233;55.686;37.848;2023-11-21T08:15:21;6.80;;;4.55;;
47784;SDS011;35233;55.686;37.848;2023-11-21T08:17:47;7.20;;;4.55;;
47784;SDS011;35233;55.686;37.848;2023-11-21T08:20:13;6.85;;;4.50;;
47784;SDS011;35233;55.686;37.848;2023-11-21T08:22:41;6.40;;;4.13;;
47784;SDS011;35233;55.686;37.848;2023-11-21T08:25:07;6.68;;;4.15;;
47784;SDS011;35233;55.686;37.848;2023-11-21T08:27:33;6.38;;;4.50;;
47784;SDS011;35233;55.686;37.848;2023-11-21T08:29:59;6.07;;;4.43;;
47784;SDS011;35233;55.686;37.848;2023-11-21T08:32:25;5.30;;;4.15;;
47784;SDS011;35233;55.686;37.848;2023-11-21T08:34:51;7.05;;;4.38;;
47784;SDS011;35233;55.686;37.848;2023-11-21T08:37:17;5.47;;;4.00;;
47784;SDS011;35233;55.686;37.848;2023-11-21T08:39:46;6.50;;;3.97;;
47784;SDS011;35233;55.686;37.848;2023-11-21T08:42:13;6.57;;;4.30;;
47784;SDS011;35233;55.686;37.848;2023-11-21T08:44:39;5.93;;;4.10;;
47784;SDS011;35233;55.686;37.848;2023-11-21T08:47:05;5.50;;;3.90;;
47784;SDS011;35233;55.686;37.848;2023-11-21T08:49:31;5.35;;;3.90;;
47784;SDS011;35233;55.686;37.848;2023-11-21T08:51:57;5.75;;;4.10;;
47784;SDS011;35233;55.686;37.848;2023-11-21T08:54:24;5.22;;;3.65;;
47784;SDS011;35233;55.686;37.848;2023-11-21T08:56:52;5.68;;;3.80;;
47784;SDS011;35233;55.686;37.848;2023-11-21T08:59:19;5.78;;;3.88;;
47784;SDS011;35233;55.686;37.848;2023-11-21T09:01:46;6.30;;;4.07;;
47784;SDS011;35233;55.686;37.848;2023-11-21T09:04:12;6.45;;;4.00;;
47784;SDS011;35233;55.686;37.848;2023-11-21T09:06:38;5.30;;;3.80;;
47784;SDS011;35233;55.686;37.848;2023-11-21T09:09:04;6.13;;;3.80;;
47784;SDS011;35233;55.686;37.848;2023-11-21T09:11:31;6.55;;;4.30;;
47784;SDS011;35233;55.686;37.848;2023-11-21T09:13:59;5.72;;;4.20;;
47784;SDS011;35233;55.686;37.848;2023-11-21T09:16:25;5.00;;;3.53;;
47784;SDS011;35233;55.686;37.848;2023-11-21T09:18:50;6.72;;;4.10;;
47784;SDS011;35233;55.686;37.848;2023-11-21T09:21:16;5.35;;;4.07;;
47784;SDS011;35233;55.686;37.848;2023-11-21T09:23:43;5.72;;;3.83;;
47784;SDS011;35233;55.686;37.848;2023-11-21T09:26:09;8.77;;;4.13;;
47784;SDS011;35233;55.686;37.848;2023-11-21T09:28:35;5.70;;;4.05;;
47784;SDS011;35233;55.686;37.848;2023-11-21T09:31:03;5.13;;;3.83;;
47784;SDS011;35233;55.686;37.848;2023-11-21T09:33:33;6.93;;;4.25;;
47784;SDS011;35233;55.686;37.848;2023-11-21T09:35:59;5.63;;;4.00;;
47784;SDS011;35233;55.686;37.848;2023-11-21T09:38:24;6.40;;;4.10;;
47784;SDS011;35233;55.686;37.848;2023-11-21T09:40:50;6.10;;;4.20;;
47784;SDS011;35233;55.686;37.848;2023-11-21T09:43:18;5.57;;;3.85;;
47784;SDS011;35233;55.686;37.848;2023-11-21T09:45:48;5.50;;;3.80;;
47784;SDS011;35233;55.686;37.848;2023-11-21T09:48:21;6.80;;;3.88;;
47784;SDS011;35233;55.686;37.848;2023-11-21T09:50:50;5.78;;;4.13;;
47784;SDS011;35233;55.686;37.848;2023-11-21T09:55:50;6.97;;;4.40;;
47784;SDS011;35233;55.686;37.848;2023-11-21T09:58:17;4.85;;;3.97;;
47784;SDS011;35233;55.686;37.848;2023-11-21T10:00:45;5.60;;;4.07;;
47784;SDS011;35233;55.686;37.848;2023-11-21T10:03:11;5.10;;;3.83;;
47784;SDS011;35233;55.686;37.848;2023-11-21T10:05:38;6.25;;;4.30;;
47784;SDS011;35233;55.686;37.848;2023-11-21T10:08:07;5.50;;;3.70;;
47784;SDS011;35233;55.686;37.848;2023-11-21T10:10:35;5.60;;;3.83;;
47784;SDS011;35233;55.686;37.848;2023-11-21T10:13:11;6.32;;;4.70;;
47784;SDS011;35233;55.686;37.848;2023-11-21T10:15:38;6.20;;;3.88;;
47784;SDS011;35233;55.686;37.848;2023-11-21T10:18:09;6.63;;;4.22;;
47784;SDS011;35233;55.686;37.848;2023-11-21T10:20:35;5.68;;;3.97;;
47784;SDS011;35233;55.686;37.848;2023-11-21T10:23:03;4.93;;;3.67;;
47784;SDS011;35233;55.686;37.848;2023-11-21T10:25:30;5.05;;;3.70;;
47784;SDS011;35233;55.686;37.848;2023-11-21T10:27:59;5.15;;;3.88;;
47784;SDS011;35233;55.686;37.848;2023-11-21T10:30:33;6.53;;;4.38;;
47784;SDS011;35233;55.686;37.848;2023-11-21T10:33:02;5.38;;;3.53;;
47784;SDS011;35233;55.686;37.848;2023-11-21T10:38:16;5.13;;;4.05;;
47784;SDS011;35233;55.686;37.848;2023-11-21T10:40:47;5.28;;;3.60;;
47784;SDS011;35233;55.686;37.848;2023-11-21T10:43:14;5.60;;;3.95;;
47784;SDS011;35233;55.686;37.848;2023-11-21T10:45:40;5.82;;;4.10;;
47784;SDS011;35233;55.686;37.848;2023-11-21T10:48:07;6.32;;;4.10;;
47784;SDS011;35233;55.686;37.848;2023-11-21T10:50:35;5.32;;;3.83;;
47784;SDS011;35233;55.686;37.848;2023-11-21T10:53:02;6.15;;;4.20;;
47784;SDS011;35233;55.686;37.848;2023-11-21T10:55:31;5.53;;;3.83;;
47784;SDS011;35233;55.686;37.848;2023-11-21T10:57:58;7.70;;;4.22;;
47784;SDS011;35233;55.686;37.848;2023-11-21T11:00:27;6.38;;;4.18;;
47784;SDS011;35233;55.686;37.848;2023-11-21T11:02:53;6.50;;;3.92;;
47784;SDS011;35233;55.686;37.848;2023-11-21T11:08:53;5.90;;;4.07;;
47784;SDS011;35233;55.686;37.848;2023-11-21T11:11:19;5.75;;;4.20;;
47784;SDS011;35233;55.686;37.848;2023-11-21T11:13:44;19.50;;;4.95;;
47784;SDS011;35233;55.686;37.848;2023-11-21T11:16:11;7.43;;;4.50;;
47784;SDS011;35233;55.686;37.848;2023-11-21T11:18:37;7.93;;;4.55;;
47784;SDS011;35233;55.686;37.848;2023-11-21T11:23:57;7.10;;;4.13;;
47784;SDS011;35233;55.686;37.848;2023-11-21T11:26:49;8.65;;;5.15;;
47784;SDS011;35233;55.686;37.848;2023-11-21T11:35:34;6.68;;;4.20;;
47784;SDS011;35233;55.686;37.848;2023-11-21T11:38:16;6.95;;;4.88;;
47784;SDS011;35233;55.686;37.848;2023-11-21T11:40:44;7.00;;;4.57;;
47784;SDS011;35233;55.686;37.848;2023-11-21T11:43:10;6.55;;;4.47;;
47784;SDS011;35233;55.686;37.848;2023-11-21T11:45:37;5.97;;;4.13;;
47784;SDS011;35233;55.686;37.848;2023-11-21T11:48:16;7.00;;;4.80;;
47784;SDS011;35233;55.686;37.848;2023-11-21T11:51:00;6.40;;;4.50;;
47784;SDS011;35233;55.686;37.848;2023-11-21T11:53:36;7.03;;;4.75;;
47784;SDS011;35233;55.686;37.848;2023-11-21T11:56:22;7.65;;;4.72;;
47784;SDS011;35233;55.686;37.848;2023-11-21T11:58:55;6.90;;;4.60;;
47784;SDS011;35233;55.686;37.848;2023-11-21T12:01:22;5.85;;;4.30;;
47784;SDS011;35233;55.686;37.848;2023-11-21T12:06:39;6.80;;;4.82;;
47784;SDS011;35233;55.686;37.848;2023-11-21T12:09:06;6.47;;;4.57;;
47784;SDS011;35233;55.686;37.848;2023-11-21T12:11:32;5.45;;;4.10;;
47784;SDS011;35233;55.686;37.848;2023-11-21T12:14:00;6.03;;;4.53;;
47784;SDS011;35233;55.686;37.848;2023-11-21T12:16:27;6.70;;;4.53;;
47784;SDS011;35233;55.686;37.848;2023-11-21T12:18:53;6.93;;;4.05;;
47784;SDS011;35233;55.686;37.848;2023-11-21T12:21:19;7.80;;;4.38;;
47784;SDS011;35233;55.686;37.848;2023-11-21T12:23:46;5.35;;;4.25;;
47784;SDS011;35233;55.686;37.848;2023-11-21T12:26:12;6.45;;;4.28;;
47784;SDS011;35233;55.686;37.848;2023-11-21T12:28:38;6.00;;;4.35;;
47784;SDS011;35233;55.686;37.848;2023-11-21T12:31:04;6.43;;;4.10;;
47784;SDS011;35233;55.686;37.848;2023-11-21T12:33:31;5.28;;;3.97;;
47784;SDS011;35233;55.686;37.848;2023-11-21T12:36:00;6.03;;;3.97;;
47784;SDS011;35233;55.686;37.848;2023-11-21T12:38:33;6.05;;;4.00;;
47784;SDS011;35233;55.686;37.848;2023-11-21T12:41:00;6.33;;;4.07;;
47784;SDS011;35233;55.686;37.848;2023-11-21T12:43:26;6.07;;;4.13;;
47784;SDS011;35233;55.686;37.848;2023-11-21T12:45:51;9.48;;;4.40;;
47784;SDS011;35233;55.686;37.848;2023-11-21T12:48:36;6.35;;;4.25;;
47784;SDS011;35233;55.686;37.848;2023-11-21T12:51:09;6.03;;;4.20;;
47784;SDS011;35233;55.686;37.848;2023-11-21T12:53:43;5.85;;;4.00;;
47784;SDS011;35233;55.686;37.848;2023-11-21T12:58:39;5.82;;;3.97;;
47784;SDS011;35233;55.686;37.848;2023-11-21T13:01:10;5.47;;;4.10;;
47784;SDS011;35233;55.686;37.848;2023-11-21T13:03:38;6.05;;;4.10;;
47784;SDS011;35233;55.686;37.848;2023-11-21T13:06:05;5.07;;;3.80;;
47784;SDS011;35233;55.686;37.848;2023-11-21T13:08:32;8.75;;;4.30;;
47784;SDS011;35233;55.686;37.848;2023-11-21T13:10:58;5.97;;;4.05;;
47784;SDS011;35233;55.686;37.848;2023-11-21T13:13:27;5.65;;;4.03;;
47784;SDS011;35233;55.686;37.848;2023-11-21T13:15:54;6.82;;;3.95;;
47784;SDS011;35233;55.686;37.848;2023-11-21T13:18:21;6.70;;;4.53;;
47784;SDS011;35233;55.686;37.848;2023-11-21T13:20:48;5.85;;;4.03;;
47784;SDS011;35233;55.686;37.848;2023-11-21T13:23:14;6.13;;;3.95;;
47784;SDS011;35233;55.686;37.848;2023-11-21T13:25:41;5.05;;;3.60;;
47784;SDS011;35233;55.686;37.848;2023-11-21T13:28:07;4.68;;;3.70;;
47784;SDS011;35233;55.686;37.848;2023-11-21T13:30:36;5.18;;;3.50;;
47784;SDS011;35233;55.686;37.848;2023-11-21T13:33:04;6.28;;;3.83;;
47784;SDS011;35233;55.686;37.848;2023-11-21T13:35:36;5.75;;;3.80;;
47784;SDS011;35233;55.686;37.848;2023-11-21T13:38:13;6.30;;;4.03;;
47784;SDS011;35233;55.686;37.848;2023-11-21T13:40:42;5.68;;;3.83;;
47784;SDS011;35233;55.686;37.848;2023-11-21T13:43:15;5.82;;;4.28;;
47784;SDS011;35233;55.686;37.848;2023-11-21T13:45:43;4.90;;;3.58;;
47784;SDS011;35233;55.686;37.848;2023-11-21T13:48:11;6.45;;;3.97;;
47784;SDS011;35233;55.686;37.848;2023-11-21T13:50:44;5.93;;;4.03;;
47784;SDS011;35233;55.686;37.848;2023-11-21T13:53:20;6.63;;;4.00;;
47784;SDS011;35233;55.686;37.848;2023-11-21T13:55:49;6.40;;;4.45;;
47784;SDS011;35233;55.686;37.848;2023-11-21T13:58:16;5.35;;;3.65;;
47784;SDS011;35233;55.686;37.848;2023-11-21T14:00:48;5.65;;;4.15;;
47784;SDS011;35233;55.686;37.848;2023-11-21T14:03:23;5.57;;;3.92;;
47784;SDS011;35233;55.686;37.848;2023-11-21T14:05:57;5.85;;;3.90;;
47784;SDS011;35233;55.686;37.848;2023-11-21T14:08:25;5.85;;;3.60;;
47784;SDS011;35233;55.686;37.848;2023-11-21T14:10:56;5.40;;;3.83;;
47784;SDS011;35233;55.686;37.848;2023-11-21T14:13:24;8.43;;;4.18;;
47784;SDS011;35233;55.686;37.848;2023-11-21T14:15:53;7.47;;;4.60;;
47784;SDS011;35233;55.686;37.848;2023-11-21T14:18:26;7.20;;;4.63;;
47784;SDS011;35233;55.686;37.848;2023-11-21T14:21:15;5.13;;;3.53;;
47784;SDS011;35233;55.686;37.848;2023-11-21T14:23:41;6.32;;;3.85;;
47784;SDS011;35233;55.686;37.848;2023-11-21T14:26:08;4.80;;;3.83;;
47784;SDS011;35233;55.686;37.848;2023-11-21T14:28:33;5.70;;;4.00;;
47784;SDS011;35233;55.686;37.848;2023-11-21T14:31:01;6.80;;;3.67;;
47784;SDS011;35233;55.686;37.848;2023-11-21T14:33:28;5.63;;;3.85;;
47784;SDS011;35233;55.686;37.848;2023-11-21T14:35:53;8.25;;;3.92;;
47784;SDS011;35233;55.686;37.848;2023-11-21T14:38:19;5.65;;;3.95;;
47784;SDS011;35233;55.686;37.848;2023-11-21T14:40:44;5.65;;;4.03;;
47784;SDS011;35233;55.686;37.848;2023-11-21T14:43:12;8.27;;;3.45;;
47784;SDS011;35233;55.686;37.848;2023-11-21T14:45:38;7.22;;;3.78;;
47784;SDS011;35233;55.686;37.848;2023-11-21T14:48:04;9.38;;;4.18;;
47784;SDS011;35233;55.686;37.848;2023-11-21T14:50:29;6.72;;;4.25;;
47784;SDS011;35233;55.686;37.848;2023-11-21T14:53:01;5.63;;;3.63;;
47784;SDS011;35233;55.686;37.848;2023-11-21T14:55:30;7.03;;;3.97;;
47784;SDS011;35233;55.686;37.848;2023-11-21T14:57:56;6.10;;;3.72;;